createdAt,value
2018-05-05T00:01:44.936Z,13.50
2018-05-05T00:04:11.045Z,13.50
2018-05-05T00:06:37.462Z,13.40
2018-05-05T00:09:04.322Z,13.40
2018-05-05T00:11:30.432Z,13.40
2018-05-05T00:13:56.731Z,13.40
2018-05-05T00:16:23.246Z,13.30
2018-05-05T00:18:49.599Z,13.30
2018-05-05T00:21:16.635Z,13.30
2018-05-05T00:23:42.727Z,13.20
2018-05-05T00:26:09.345Z,13.20
2018-05-05T00:28:35.443Z,13.20
2018-05-05T00:31:01.678Z,13.20
2018-05-05T00:33:28.055Z,13.40
2018-05-05T00:35:54.365Z,13.10
2018-05-05T00:38:20.699Z,13.10
2018-05-05T00:40:47.302Z,13.00
2018-05-05T00:43:13.622Z,13.00
2018-05-05T00:45:39.926Z,13.00
2018-05-05T00:48:06.206Z,12.90
2018-05-05T00:50:32.562Z,13.10
2018-05-05T00:52:59.555Z,12.80
2018-05-05T00:55:25.826Z,12.80
2018-05-05T00:57:52.106Z,12.70
2018-05-05T01:00:18.430Z,12.70
2018-05-05T01:02:44.726Z,12.70
2018-05-05T01:05:11.011Z,12.70
2018-05-05T01:07:37.311Z,12.70
2018-05-05T01:10:03.610Z,12.60
2018-05-05T01:12:29.926Z,12.60
2018-05-05T01:14:56.047Z,12.50
2018-05-05T01:17:22.346Z,12.50
2018-05-05T01:19:48.630Z,12.40
2018-05-05T01:22:15.759Z,12.40
2018-05-05T01:24:41.865Z,12.40
2018-05-05T01:27:07.946Z,12.40
2018-05-05T01:29:34.046Z,12.30
2018-05-05T01:32:00.134Z,12.30
2018-05-05T01:34:26.971Z,12.30
2018-05-05T01:36:53.238Z,12.30
2018-05-05T01:39:19.529Z,12.20
2018-05-05T01:41:45.828Z,12.30
2018-05-05T01:44:12.869Z,12.20
2018-05-05T01:46:38.961Z,12.20
2018-05-05T01:49:05.064Z,12.20
2018-05-05T01:51:32.754Z,12.20
2018-05-05T01:53:59.810Z,12.10
2018-05-05T01:56:26.085Z,12.10
2018-05-05T01:58:54.604Z,12.00
2018-05-05T02:01:20.698Z,12.00
2018-05-05T02:03:46.783Z,12.00
2018-05-05T02:06:12.892Z,12.20
2018-05-05T02:08:39.710Z,12.00
2018-05-05T02:11:05.847Z,12.00
2018-05-05T02:13:31.992Z,12.00
2018-05-05T02:15:58.071Z,11.90
2018-05-05T02:18:24.883Z,11.80
2018-05-05T02:20:50.964Z,11.80
2018-05-05T02:23:17.034Z,11.80
2018-05-05T02:25:43.316Z,11.70
2018-05-05T02:28:09.607Z,11.70
2018-05-05T02:30:35.694Z,11.60
2018-05-05T02:33:02.100Z,11.60
2018-05-05T02:35:28.386Z,11.60
2018-05-05T02:37:54.695Z,11.60
2018-05-05T02:40:21.052Z,11.50
2018-05-05T02:42:48.076Z,11.50
2018-05-05T02:45:18.830Z,11.40
2018-05-05T02:47:45.795Z,11.50
2018-05-05T02:50:12.824Z,11.50
2018-05-05T02:52:39.174Z,11.40
2018-05-05T02:55:05.466Z,11.80
2018-05-05T02:57:32.479Z,11.40
2018-05-05T02:59:58.780Z,11.40
2018-05-05T03:02:25.112Z,11.30
2018-05-05T03:04:51.492Z,11.30
2018-05-05T03:07:17.796Z,11.30
2018-05-05T03:09:44.826Z,11.20
2018-05-05T03:12:11.133Z,11.20
2018-05-05T03:14:37.439Z,11.20
2018-05-05T03:17:04.522Z,11.10
2018-05-05T03:19:30.642Z,11.10
2018-05-05T03:21:57.693Z,11.10
2018-05-05T03:24:24.600Z,11.10
2018-05-05T03:26:50.709Z,11.10
2018-05-05T03:29:17.242Z,11.00
2018-05-05T03:31:43.334Z,10.90
2018-05-05T03:34:09.427Z,10.90
2018-05-05T03:36:36.487Z,10.80
2018-05-05T03:39:03.395Z,10.80
2018-05-05T03:41:29.506Z,10.80
2018-05-05T03:43:57.540Z,10.80
2018-05-05T03:46:23.643Z,10.70
2018-05-05T03:48:49.747Z,10.70
2018-05-05T03:51:18.131Z,10.80
2018-05-05T03:53:44.229Z,10.70
2018-05-05T03:56:10.319Z,10.80
2018-05-05T03:58:36.428Z,10.70
2018-05-05T04:04:10.372Z,12.00
2018-05-05T04:06:36.607Z,10.50
2018-05-05T04:09:02.851Z,10.90
2018-05-05T04:11:29.136Z,10.60
2018-05-05T04:13:55.576Z,10.40
2018-05-05T04:16:21.745Z,10.50
2018-05-05T04:18:47.962Z,10.50
2018-05-05T04:21:14.169Z,10.60
2018-05-05T04:23:40.397Z,10.50
2018-05-05T04:26:06.619Z,10.60
2018-05-05T04:28:33.577Z,10.40
2018-05-05T04:30:59.767Z,10.10
2018-05-05T04:33:25.978Z,10.60
2018-05-05T04:35:52.180Z,9.60
2018-05-05T04:38:18.367Z,10.40
2018-05-05T04:40:44.619Z,10.50
2018-05-05T04:43:10.863Z,10.40
2018-05-05T04:45:37.109Z,10.50
2018-05-05T04:48:03.286Z,10.90
2018-05-05T04:50:29.520Z,10.60
2018-05-05T04:52:55.737Z,10.80
2018-05-05T04:55:22.776Z,10.80
2018-05-05T04:57:49.460Z,10.50
2018-05-05T05:00:15.867Z,10.50
2018-05-05T05:02:42.878Z,10.60
2018-05-05T05:05:09.109Z,10.40
2018-05-05T05:07:35.310Z,10.10
2018-05-05T05:10:01.559Z,10.30
2018-05-05T05:12:27.702Z,11.30
2018-05-05T05:14:53.906Z,10.80
2018-05-05T05:17:20.097Z,10.90
2018-05-05T05:19:46.259Z,11.00
2018-05-05T05:22:12.449Z,11.10
2018-05-05T05:24:38.770Z,10.70
2018-05-05T05:27:08.008Z,11.10
2018-05-05T05:29:34.964Z,11.00
2018-05-05T05:32:01.209Z,11.50
2018-05-05T05:34:28.155Z,11.00
2018-05-05T05:36:54.339Z,10.10
2018-05-05T05:39:20.573Z,11.00
2018-05-05T05:41:46.772Z,11.00
2018-05-05T05:44:12.978Z,11.10
2018-05-05T05:46:39.385Z,11.50
2018-05-05T05:49:05.582Z,11.30
2018-05-05T05:51:31.832Z,11.10
2018-05-05T05:53:58.858Z,11.60
2018-05-05T05:56:25.090Z,11.40
2018-05-05T05:58:51.317Z,11.60
2018-05-05T06:01:17.562Z,11.90
2018-05-05T06:03:43.834Z,11.90
2018-05-05T06:06:10.025Z,12.70
2018-05-05T06:08:36.297Z,12.20
2018-05-05T06:11:05.033Z,12.20
2018-05-05T06:13:31.308Z,12.30
2018-05-05T06:16:03.601Z,12.30
2018-05-05T06:18:29.846Z,12.20
2018-05-05T06:20:56.054Z,12.50
2018-05-05T06:23:22.324Z,12.60
2018-05-05T06:25:50.757Z,12.40
2018-05-05T06:28:17.872Z,12.20
2018-05-05T06:30:48.044Z,12.80
2018-05-05T06:33:15.029Z,13.00
2018-05-05T06:35:41.257Z,12.90
2018-05-05T06:38:08.185Z,13.20
2018-05-05T06:40:34.427Z,13.60
2018-05-05T06:43:01.163Z,13.30
2018-05-05T06:45:27.464Z,13.30
2018-05-05T06:47:54.448Z,13.50
2018-05-05T06:50:21.546Z,13.60
2018-05-05T06:52:47.870Z,13.70
2018-05-05T06:55:14.107Z,14.20
2018-05-05T06:57:40.447Z,13.70
2018-05-05T07:00:06.701Z,14.30
2018-05-05T07:02:32.999Z,13.70
2018-05-05T07:04:59.354Z,14.30
2018-05-05T07:07:26.194Z,14.50
2018-05-05T07:09:52.410Z,14.50
2018-05-05T07:12:18.656Z,14.70
2018-05-05T07:14:44.788Z,14.80
2018-05-05T07:17:11.012Z,14.90
2018-05-05T07:19:37.134Z,15.10
2018-05-05T07:22:03.322Z,15.40
2018-05-05T07:24:31.158Z,15.70
2018-05-05T07:26:57.270Z,15.70
2018-05-05T07:29:24.987Z,16.30
2018-05-05T07:31:51.118Z,16.30
2018-05-05T07:34:17.225Z,17.00
2018-05-05T07:36:43.478Z,18.10
2018-05-05T07:39:09.585Z,19.60
2018-05-05T07:41:35.992Z,21.40
2018-05-05T07:44:02.255Z,23.10
2018-05-05T07:46:28.366Z,25.10
2018-05-05T07:48:55.192Z,28.50
2018-05-05T07:51:21.391Z,28.40
2018-05-05T07:53:47.506Z,30.10
2018-05-05T07:56:13.795Z,30.90
2018-05-05T07:58:39.902Z,31.40
2018-05-05T08:01:06.019Z,31.90
2018-05-05T08:03:32.875Z,33.40
2018-05-05T08:05:58.987Z,33.30
2018-05-05T08:08:25.099Z,33.80
2018-05-05T08:10:51.222Z,34.00
2018-05-05T08:13:17.336Z,34.60
2018-05-05T08:15:43.455Z,34.90
2018-05-05T08:18:10.037Z,35.20
2018-05-05T08:20:37.122Z,35.80
2018-05-05T08:23:03.445Z,35.80
2018-05-05T08:25:29.561Z,35.60
2018-05-05T08:27:56.392Z,33.10
2018-05-05T08:30:22.575Z,33.10
2018-05-05T08:32:48.727Z,31.00
2018-05-05T08:35:14.867Z,29.00
2018-05-05T08:37:41.073Z,27.10
2018-05-05T08:40:07.143Z,25.70
2018-05-05T08:42:33.721Z,24.40
2018-05-05T08:44:59.812Z,23.30
2018-05-05T08:47:26.664Z,21.80
2018-05-05T08:49:52.827Z,21.80
2018-05-05T08:52:18.939Z,21.40
2018-05-05T08:54:45.818Z,20.70
2018-05-05T08:57:13.748Z,20.60
2018-05-05T08:59:40.048Z,20.50
2018-05-05T09:02:06.654Z,20.50
2018-05-05T09:04:32.811Z,20.40
2018-05-05T09:06:58.941Z,20.70
2018-05-05T09:09:25.051Z,20.20
2018-05-05T09:11:51.143Z,20.30
2018-05-05T09:14:17.950Z,20.00
2018-05-05T09:16:44.212Z,19.90
2018-05-05T09:19:10.314Z,20.00
2018-05-05T09:21:36.699Z,19.90
2018-05-05T09:24:03.647Z,20.10
2018-05-05T09:26:29.891Z,20.00
2018-05-05T09:28:58.852Z,20.10
2018-05-05T09:31:42.295Z,20.20
2018-05-05T09:34:17.042Z,20.20
2018-05-05T09:36:43.178Z,20.20
2018-05-05T09:39:10.030Z,20.50
2018-05-05T09:41:52.374Z,20.40
2018-05-05T09:44:26.638Z,20.50
2018-05-05T09:47:01.781Z,20.60
2018-05-05T09:49:31.201Z,20.50
2018-05-05T09:51:58.214Z,20.70
2018-05-05T09:54:28.183Z,20.70
2018-05-05T09:56:54.535Z,20.80
2018-05-05T09:59:20.952Z,20.80
2018-05-05T10:01:52.200Z,20.90
2018-05-05T10:04:18.571Z,20.90
2018-05-05T10:06:54.427Z,20.80
2018-05-05T10:09:40.136Z,20.80
2018-05-05T10:12:10.992Z,20.80
2018-05-05T10:14:38.735Z,20.90
2018-05-05T10:17:05.067Z,20.90
2018-05-05T10:19:31.565Z,21.00
2018-05-05T10:21:58.406Z,21.00
2018-05-05T10:24:24.726Z,21.00
2018-05-05T10:26:51.046Z,21.10
2018-05-05T10:29:17.729Z,21.10
2018-05-05T10:31:44.112Z,21.30
2018-05-05T10:34:10.530Z,21.50
2018-05-05T10:36:38.322Z,21.40
2018-05-05T10:39:05.240Z,21.50
2018-05-05T10:41:31.842Z,21.40
2018-05-05T10:44:00.094Z,21.40
2018-05-05T10:46:26.436Z,21.30
2018-05-05T10:48:52.768Z,21.30
2018-05-05T10:51:19.829Z,21.30
2018-05-05T10:53:46.107Z,21.30
2018-05-05T10:56:13.110Z,21.40
2018-05-05T10:58:39.704Z,21.50
2018-05-05T11:01:06.028Z,21.50
2018-05-05T11:03:32.363Z,21.60
2018-05-05T11:05:59.555Z,21.60
2018-05-05T11:08:25.906Z,21.60
2018-05-05T11:10:52.505Z,21.60
2018-05-05T11:13:19.559Z,21.70
2018-05-05T11:15:47.138Z,21.70
2018-05-05T11:18:13.515Z,21.70
2018-05-05T11:20:39.830Z,21.80
2018-05-05T11:23:06.894Z,21.90
2018-05-05T11:25:33.931Z,21.90
2018-05-05T11:28:00.231Z,22.10
2018-05-05T11:30:26.559Z,21.90
2018-05-05T11:32:52.950Z,21.90
2018-05-05T11:35:20.035Z,22.10
2018-05-05T11:37:46.338Z,22.00
2018-05-05T11:40:12.615Z,22.10
2018-05-05T11:42:39.050Z,22.10
2018-05-05T11:45:05.366Z,22.10
2018-05-05T11:47:31.683Z,22.30
2018-05-05T11:50:03.276Z,22.30
2018-05-05T11:52:29.721Z,22.20
2018-05-05T11:54:56.019Z,22.30
2018-05-05T11:57:22.315Z,22.40
2018-05-05T11:59:49.346Z,22.50
2018-05-05T12:02:15.732Z,22.50
2018-05-05T12:04:42.703Z,22.60
2018-05-05T12:07:11.596Z,22.30
2018-05-05T12:09:37.984Z,22.40
2018-05-05T12:12:04.338Z,22.40
2018-05-05T12:14:30.744Z,22.40
2018-05-05T12:16:57.111Z,22.40
2018-05-05T12:19:23.518Z,22.50
2018-05-05T12:21:49.895Z,22.60
2018-05-05T12:26:47.585Z,22.60
2018-05-05T12:29:14.631Z,22.60
2018-05-05T12:31:40.946Z,22.60
2018-05-05T12:34:07.275Z,22.70
2018-05-05T12:36:33.562Z,22.70
2018-05-05T12:38:59.995Z,22.80
2018-05-05T12:41:27.004Z,22.80
2018-05-05T12:43:53.322Z,22.80
2018-05-05T12:46:19.632Z,22.90
2018-05-05T12:48:45.951Z,22.80
2018-05-05T12:51:12.333Z,22.90
2018-05-05T12:53:38.651Z,22.90
2018-05-05T12:56:04.948Z,23.00
2018-05-05T12:58:36.154Z,23.00
2018-05-05T13:01:02.649Z,23.00
2018-05-05T13:03:29.750Z,23.10
2018-05-05T13:05:56.843Z,23.20
2018-05-05T13:08:24.575Z,23.20
2018-05-05T13:10:51.642Z,23.10
2018-05-05T13:13:17.996Z,23.10
2018-05-05T13:15:44.330Z,23.10
2018-05-05T13:18:10.668Z,23.10
2018-05-05T13:20:36.989Z,23.20
2018-05-05T13:23:03.286Z,23.00
2018-05-05T13:25:31.984Z,23.30
2018-05-05T13:27:58.374Z,23.20
2018-05-05T13:30:25.532Z,23.20
2018-05-05T13:32:52.624Z,23.20
2018-05-05T13:35:19.052Z,23.20
2018-05-05T13:37:45.374Z,23.30
2018-05-05T13:42:44.011Z,23.40
2018-05-05T13:45:11.959Z,23.40
2018-05-05T13:47:38.085Z,23.40
2018-05-05T13:50:04.193Z,23.00
2018-05-05T13:52:30.287Z,23.40
2018-05-05T13:54:56.392Z,23.40
2018-05-05T13:57:24.287Z,23.40
2018-05-05T13:59:50.664Z,23.60
2018-05-05T14:02:16.987Z,23.30
2018-05-05T14:04:44.176Z,23.60
2018-05-05T14:07:14.035Z,23.60
2018-05-05T14:09:40.146Z,23.60
2018-05-05T14:12:06.296Z,23.60
2018-05-05T14:14:32.442Z,23.60
2018-05-05T14:17:01.030Z,23.60
2018-05-05T14:19:27.879Z,23.70
2018-05-05T14:21:53.972Z,23.70
2018-05-05T14:24:20.060Z,23.70
2018-05-05T14:26:46.874Z,23.70
2018-05-05T14:29:12.958Z,23.70
2018-05-05T14:31:39.080Z,23.70
2018-05-05T14:34:05.188Z,23.80
2018-05-05T14:36:34.860Z,23.80
2018-05-05T14:39:00.987Z,23.80
2018-05-05T14:41:27.094Z,23.80
2018-05-05T14:43:53.226Z,23.80
2018-05-05T14:46:19.356Z,23.80
2018-05-05T14:48:45.456Z,23.80
2018-05-05T14:51:12.372Z,23.90
2018-05-05T14:53:40.376Z,23.80
2018-05-05T14:56:06.556Z,23.90
2018-05-05T14:58:33.382Z,24.00
2018-05-05T15:00:59.482Z,24.00
2018-05-05T15:03:25.605Z,24.00
2018-05-05T15:05:51.782Z,23.90
2018-05-05T15:08:17.887Z,23.90
2018-05-05T15:10:44.024Z,23.90
2018-05-05T15:13:10.148Z,23.90
2018-05-05T15:15:36.477Z,23.90
2018-05-05T15:18:03.026Z,24.20
2018-05-05T15:20:29.326Z,23.80
2018-05-05T15:22:55.674Z,23.70
2018-05-05T15:25:22.010Z,23.80
2018-05-05T15:27:48.314Z,23.80
2018-05-05T15:30:19.111Z,23.80
2018-05-05T15:32:46.187Z,23.80
2018-05-05T15:35:12.475Z,23.80
2018-05-05T15:37:39.185Z,23.70
2018-05-05T15:40:05.669Z,23.70
2018-05-05T15:42:32.708Z,23.70
2018-05-05T15:44:58.843Z,23.70
2018-05-05T15:47:27.782Z,23.90
2018-05-05T15:49:54.098Z,23.70
2018-05-05T15:52:20.423Z,23.80
2018-05-05T15:54:46.766Z,23.70
2018-05-05T15:57:13.068Z,23.70
2018-05-05T15:59:39.436Z,23.70
2018-05-05T16:02:05.759Z,23.70
2018-05-05T16:04:32.950Z,23.70
2018-05-05T16:07:02.816Z,23.60
2018-05-05T16:09:29.150Z,23.60
2018-05-05T16:11:55.673Z,23.60
2018-05-05T16:14:22.667Z,23.60
2018-05-05T16:16:48.988Z,23.60
2018-05-05T16:19:15.320Z,23.60
2018-05-05T16:21:51.232Z,23.70
2018-05-05T16:24:17.416Z,23.50
2018-05-05T16:26:44.245Z,23.50
2018-05-05T16:29:10.403Z,23.40
2018-05-05T16:31:37.274Z,23.40
2018-05-05T16:34:03.493Z,23.40
2018-05-05T16:36:29.591Z,23.40
2018-05-05T16:38:55.692Z,23.40
2018-05-05T16:41:22.516Z,23.30
2018-05-05T16:43:48.624Z,23.50
2018-05-05T16:46:14.710Z,23.20
2018-05-05T16:48:40.802Z,23.10
2018-05-05T16:51:07.003Z,23.20
2018-05-05T16:53:33.128Z,23.20
2018-05-05T16:55:59.975Z,23.10
2018-05-05T16:58:26.072Z,23.30
2018-05-05T17:00:52.183Z,23.00
2018-05-05T17:03:18.287Z,23.10
2018-05-05T17:05:44.403Z,23.10
2018-05-05T17:08:10.479Z,23.00
2018-05-05T17:10:36.585Z,23.00
2018-05-05T17:13:05.220Z,22.90
2018-05-05T17:15:31.307Z,22.80
2018-05-05T17:17:58.146Z,22.70
2018-05-05T17:20:24.233Z,22.70
2018-05-05T17:22:51.054Z,22.60
2018-05-05T17:25:17.144Z,22.60
2018-05-05T17:27:43.963Z,22.50
2018-05-05T17:30:10.067Z,22.40
2018-05-05T17:32:36.145Z,22.50
2018-05-05T17:35:02.302Z,22.60
2018-05-05T17:37:28.446Z,22.80
2018-05-05T17:39:54.791Z,22.40
2018-05-05T17:42:20.836Z,22.50
2018-05-05T17:44:46.957Z,22.30
2018-05-05T17:47:13.099Z,22.30
2018-05-05T17:49:39.188Z,22.10
2018-05-05T17:52:05.274Z,22.50
2018-05-05T17:54:31.373Z,22.20
2018-05-05T17:56:58.216Z,22.00
2018-05-05T17:59:24.324Z,22.00
2018-05-05T18:01:50.449Z,21.90
2018-05-05T18:04:17.569Z,21.80
2018-05-05T18:06:43.627Z,21.90
2018-05-05T18:09:09.956Z,21.80
2018-05-05T18:11:36.246Z,21.70
2018-05-05T18:14:02.581Z,21.70
2018-05-05T18:16:29.231Z,21.70
2018-05-05T18:18:55.535Z,21.60
2018-05-05T18:21:22.639Z,21.50
2018-05-05T18:23:50.195Z,21.50
2018-05-05T18:26:16.311Z,21.50
2018-05-05T18:28:43.157Z,21.30
2018-05-05T18:31:09.279Z,21.30
2018-05-05T18:33:41.482Z,21.20
2018-05-05T18:36:07.571Z,21.20
2018-05-05T18:38:34.411Z,21.20
2018-05-05T18:41:00.502Z,21.20
2018-05-05T18:43:27.453Z,21.00
2018-05-05T18:45:53.479Z,21.00
2018-05-05T18:48:22.807Z,20.90
2018-05-05T18:50:51.656Z,20.90
2018-05-05T18:53:18.519Z,20.80
2018-05-05T18:55:44.627Z,20.80
2018-05-05T18:58:10.784Z,20.80
2018-05-05T19:00:36.943Z,20.80
2018-05-05T19:03:03.152Z,20.80
2018-05-05T19:05:29.316Z,20.80
2018-05-05T19:07:55.383Z,20.70
2018-05-05T19:10:21.499Z,20.70
2018-05-05T19:12:48.343Z,20.60
2018-05-05T19:15:14.452Z,20.60
2018-05-05T19:17:40.603Z,20.50
2018-05-05T19:20:06.720Z,20.40
2018-05-05T19:22:33.585Z,20.70
2018-05-05T19:24:59.719Z,20.30
2018-05-05T19:27:25.791Z,20.10
2018-05-05T19:29:51.955Z,20.10
2018-05-05T19:32:18.845Z,20.00
2018-05-05T19:34:45.934Z,20.00
2018-05-05T19:37:12.051Z,19.90
2018-05-05T19:39:39.083Z,19.90
2018-05-05T19:42:05.916Z,19.80
2018-05-05T19:44:32.451Z,19.80
2018-05-05T19:46:58.566Z,20.00
2018-05-05T19:49:25.546Z,19.80
2018-05-05T19:51:51.655Z,19.70
2018-05-05T19:54:17.737Z,19.70
2018-05-05T19:56:43.874Z,19.60
2018-05-05T19:59:10.632Z,19.50
2018-05-05T20:01:36.719Z,19.40
2018-05-05T20:04:02.876Z,19.40
2018-05-05T20:06:28.969Z,19.30
2018-05-05T20:08:55.074Z,19.30
2018-05-05T20:11:21.143Z,19.20
2018-05-05T20:13:47.416Z,19.30
2018-05-05T20:16:13.759Z,19.20
2018-05-05T20:18:40.586Z,19.00
2018-05-05T20:21:08.137Z,19.00
2018-05-05T20:23:38.990Z,18.90
2018-05-05T20:26:05.081Z,18.90
2018-05-05T20:28:36.264Z,18.80
2018-05-05T20:31:15.838Z,18.70
2018-05-05T20:33:43.790Z,18.70
2018-05-05T20:36:09.899Z,18.70
2018-05-05T20:38:36.726Z,18.60
2018-05-05T20:41:03.027Z,18.50
2018-05-05T20:43:29.136Z,18.50
2018-05-05T20:45:56.027Z,18.40
2018-05-05T20:48:22.857Z,18.30
2018-05-05T20:50:49.822Z,18.30
2018-05-05T20:53:15.883Z,18.30
2018-05-05T20:55:41.995Z,18.30
2018-05-05T20:58:08.114Z,18.30
2018-05-05T21:00:34.218Z,18.20
2018-05-05T21:03:00.298Z,18.20
2018-05-05T21:05:28.810Z,18.10
2018-05-05T21:07:54.903Z,18.00
2018-05-05T21:10:21.137Z,18.10
2018-05-05T21:12:47.247Z,18.00
2018-05-05T21:15:13.338Z,18.00
2018-05-05T21:17:39.455Z,17.80
2018-05-05T21:20:06.282Z,17.70
2018-05-05T21:22:33.110Z,17.60
2018-05-05T21:24:59.199Z,17.60
2018-05-05T21:27:25.299Z,17.60
2018-05-05T21:29:52.137Z,17.50
2018-05-05T21:32:18.271Z,17.40
2018-05-05T21:34:44.351Z,17.60
2018-05-05T21:37:10.443Z,17.60
2018-05-05T21:39:36.680Z,17.30
2018-05-05T21:42:02.840Z,17.30
2018-05-05T21:44:28.939Z,17.30
2018-05-05T21:46:55.046Z,17.20
2018-05-05T21:49:21.154Z,17.20
2018-05-05T21:51:47.273Z,17.20
2018-05-05T21:54:13.498Z,17.10
2018-05-05T21:56:39.715Z,17.00
2018-05-05T21:59:05.903Z,16.90
2018-05-05T22:01:32.051Z,16.70
2018-05-05T22:03:58.141Z,16.90
2018-05-05T22:06:24.238Z,16.80
2018-05-05T22:08:50.334Z,16.80
2018-05-05T22:11:16.431Z,16.70
2018-05-05T22:13:43.274Z,16.50
2018-05-05T22:16:09.500Z,16.50
2018-05-05T22:18:35.655Z,16.50
2018-05-05T22:21:01.752Z,16.50
2018-05-05T22:23:27.850Z,16.10
2018-05-05T22:25:57.166Z,16.40
2018-05-05T22:28:23.547Z,16.60
2018-05-05T22:30:49.655Z,16.40
2018-05-05T22:33:16.495Z,16.20
2018-05-05T22:35:42.603Z,16.20
2018-05-05T22:38:09.250Z,16.10
2018-05-05T22:40:36.025Z,16.10
2018-05-05T22:43:02.137Z,15.70
2018-05-05T22:45:28.247Z,16.00
2018-05-05T22:47:55.078Z,15.90
2018-05-05T22:50:21.171Z,15.90
2018-05-05T22:52:47.284Z,15.90
2018-05-05T22:55:13.414Z,15.70
2018-05-05T22:57:39.506Z,15.80
2018-05-05T23:00:05.883Z,15.70
2018-05-05T23:02:31.975Z,15.70
2018-05-05T23:04:58.094Z,15.70
2018-05-05T23:07:24.227Z,15.70
2018-05-05T23:09:51.053Z,15.70
2018-05-05T23:12:17.158Z,15.60
2018-05-05T23:14:43.252Z,15.80
2018-05-05T23:17:09.334Z,15.60
2018-05-05T23:19:35.430Z,15.60
2018-05-05T23:22:01.524Z,15.90
2018-05-05T23:24:27.611Z,15.50
2018-05-05T23:26:53.709Z,15.50
2018-05-05T23:29:19.829Z,15.80
2018-05-05T23:31:45.990Z,15.30
2018-05-05T23:34:12.166Z,15.20
2018-05-05T23:36:38.302Z,15.20
2018-05-05T23:39:05.147Z,15.10
2018-05-05T23:41:31.265Z,15.10
2018-05-05T23:43:57.367Z,15.10
2018-05-05T23:46:23.975Z,15.10
2018-05-05T23:48:50.214Z,15.10
2018-05-05T23:51:16.334Z,15.00
2018-05-05T23:53:42.414Z,15.00
2018-05-05T23:56:08.568Z,15.00
2018-05-05T23:58:35.414Z,14.90
